• Join FlightAware (Why Join?)
  • Login
  • US Flag 
09:21AM EDT


 

Airport Tracker/Info


-or-


 

Live Flight TrackerFlight Track Log ✈ UAL4536 ✈ 23-Apr-2013 ✈ KIAH - KCLT

Flight Track Log - Related Links

Times and Time Zones

All times are in EDT time to prevent confusion due to time zone crossing. See the UAL4536 flight status page for this flight to view local times or setup timezone preferences in your user account.

Time Position Orientation Groundspeed Altitude Reporting Facility
EDT Latitude Longitude Course Direction KTS MPH feet Rate Location/Type
02:22PM 29.9592 -95.3392 90° East 153 176 700  Level Houston Center
02:23PM 29.9500 -95.3089 109° East 177 204 1,800 1,380 Climbing Houston Center
02:24PM 29.9422 -95.2586 100° East 210 242 2,600 1,440 Climbing Houston Center
02:24PM 29.9364 -95.2283 103° East 260 299 3,300 2,100 Climbing Houston Center
02:25PM 29.9472 -95.1753 77° East 255 293 4,800 1,620 Climbing Houston Center
02:25PM 29.9475 -95.1428 89° East 274 315 5,000 240 Climbing Houston Center
02:26PM 29.9834 -94.8034 90° East  Level FlightAware Approximate
02:26PM 29.9517 -95.0878 85° East 272 313 5,100  Level Houston Center
02:27PM 29.9833 -94.6710 90° East  Level FlightAware Approximate
02:27PM 29.9578 -95.0036 85° East 265 305 7,300  Level Houston Center
02:28PM 29.9834 -94.5385 90° East  Level FlightAware Approximate
02:28PM 29.9622 -94.9147 87° East 275 316 8,800  Level Houston Center
02:29PM 29.9697 -94.7958 86° East 306 352 10,700 1,500 Climbing Houston Center
02:30PM 29.9756 -94.6981 86° East 305 351 11,900 960 Climbing Houston Center
02:31PM 29.9806 -94.5867 87° East 341 392 12,700 780 Climbing Houston Center
02:32PM 29.9881 -94.4636 86° East 366 421 13,600 900 Climbing Houston Center
02:33PM 29.9947 -94.3419 86° East 380 437 14,600 1,020 Climbing Houston Center
02:34PM 30.0064 -94.2197 84° East 385 443 15,800 1,080 Climbing Houston Center
02:35PM 30.0228 -94.0958 81° East 392 451 16,900 1,080 Climbing Houston Center
02:36PM 30.0414 -93.9456 82° East 397 457 18,100 1,140 Climbing Houston Center
02:37PM 30.0567 -93.8197 82° East 400 460 19,300 1,080 Climbing Houston Center
02:38PM 30.0719 -93.6906 82° East 408 470 20,400 960 Climbing Houston Center
02:39PM 30.0878 -93.5600 82° East 415 478 21,300 840 Climbing Houston Center
02:40PM 30.1058 -93.3967 83° East 432 497 22,200 780 Climbing Houston Center
02:41PM 30.1228 -93.2581 82° East 442 509 23,000 840 Climbing Houston Center
02:42PM 30.1392 -93.1183 82° East 442 509 24,000 900 Climbing Houston Center
02:43PM 30.1644 -92.9803 78° East 443 510 24,900 480 Climbing Houston Center
02:44PM 30.1919 -92.8408 77° East 447 514 25,000 540 Climbing Houston Center
02:45PM 30.2264 -92.6675 77° East 461 531 26,100 900 Climbing Houston Center
02:46PM 30.2536 -92.5264 77° East 453 521 26,900 420 Climbing Houston Center
02:47PM 30.2808 -92.3822 78° East 459 528 27,000 600 Climbing Houston Center
02:49PM 30.3128 -92.2208 77° East 462 532 28,200 960 Climbing Houston Center
02:50PM 30.3386 -92.0800 78° East 455 524 29,000 660 Climbing Houston Center
02:51PM 30.3658 -91.9364 78° East 456 525 29,600 720 Climbing Houston Center
02:52PM 30.3925 -91.7942 78° East 455 524 30,600 960 Climbing Houston Center
02:53PM 30.4219 -91.6378 78° East 456 525 31,600 960 Climbing Houston Center
02:54PM 30.4486 -91.4939 78° East 456 525 32,600 960 Climbing Houston Center
02:55PM 30.4764 -91.3486 77° East 460 529 33,600 1,080 Climbing Houston Center
02:56PM 30.5242 -91.2175 67° East 449 517 34,900 660 Climbing Houston Center
02:57PM 30.5953 -91.0650 62° Northeast 446 513 35,000  Climbing Houston Center
02:58PM 30.6589 -90.9317 61° Northeast 467 537 35,000  Level Houston Center
02:59PM 30.7256 -90.7908 61° Northeast 492 566 35,000 480 Level Houston Center
03:00PM 30.7922 -90.6508 61° Northeast 494 568 36,000 480 Climbing Houston Center
03:01PM 30.8583 -90.5092 61° Northeast 496 571 36,000  Level Houston Center
03:02PM 30.9281 -90.3647 61° Northeast 506 582 36,000  Level Houston Center
03:03PM 31.0211 -90.2208 53° Northeast 460 529 36,000  Level Houston Center
03:04PM 31.1111 -90.1278 42° Northeast 434 499 36,000  Level Houston Center
03:05PM 31.2025 -90.0347 41° Northeast 433 498 36,000 420 Level Houston Center
03:06PM 31.2947 -89.9386 42° Northeast 442 509 36,900 480 Climbing Houston Center
03:07PM 31.3847 -89.8464 41° Northeast 432 497 37,000  Climbing Houston Center
03:08PM 31.4781 -89.7497 41° Northeast 443 510 37,000  Level Houston Center
03:09PM 31.5931 -89.6314 41° Northeast 456 525 37,000  Level Houston Center
03:10PM 31.6889 -89.5319 41° Northeast 459 528 37,000  Level Houston Center
03:11PM 31.7781 -89.4383 42° Northeast 462 532 37,000  Level Houston Center
03:12PM 31.8492 -89.3008 59° Northeast 462 532 37,000  Level Memphis Center
03:13PM 31.9019 -89.1633 66° East 474 545 37,000  Level Memphis Center
03:14PM 31.9692 -88.9933 65° Northeast 491 565 37,000  Level Memphis Center
03:15PM 32.0261 -88.8481 65° Northeast 491 565 37,000  Level Memphis Center
03:17PM 32.1192 -88.6097 65° Northeast 478 550 37,000  Level Atlanta Center
03:18PM 32.1742 -88.4703 65° Northeast 468 539 37,000  Level Atlanta Center
03:19PM 32.2294 -88.3258 66° East 468 539 37,000  Level Atlanta Center
03:20PM 32.2844 -88.1808 66° East 475 547 37,000  Level Atlanta Center
03:21PM 32.3394 -88.0361 66° East 480 552 37,000  Level Atlanta Center
03:22PM 32.3961 -87.8886 66° East 480 552 37,000  Level Atlanta Center
03:23PM 32.4508 -87.7408 66° East 480 552 37,000  Level Atlanta Center
03:24PM 32.5033 -87.5903 68° East 487 560 37,000  Level Atlanta Center
03:25PM 32.5594 -87.4472 65° Northeast 487 560 37,000  Level Atlanta Center
03:26PM 32.6114 -87.3061 66° East 474 545 37,000  Level Atlanta Center
03:27PM 32.6631 -87.1675 66° East 467 537 37,000  Level Atlanta Center
03:28PM 32.7144 -87.0261 67° East 467 537 37,000  Level Atlanta Center
03:29PM 32.7681 -86.8822 66° East 467 537 37,000  Level Atlanta Center
03:30PM 32.8192 -86.7381 67° East 475 547 37,000  Level Atlanta Center
03:31PM 32.8700 -86.6011 66° East 470 541 37,000  Level Atlanta Center
03:32PM 32.9256 -86.4442 67° East 480 552 37,000  Level Atlanta Center
03:33PM 32.9761 -86.2994 67° East 485 558 37,000  Level Atlanta Center
03:34PM 33.0308 -86.1572 65° Northeast 473 544 37,000  Level Atlanta Center
03:35PM 33.0814 -86.0022 69° East 478 550 37,000  Level Atlanta Center
03:36PM 33.1358 -85.8597 65° Northeast 478 550 37,000  Level Atlanta Center
03:37PM 33.1772 -85.7389 68° East 478 550 37,000  Level Atlanta Center
03:38PM 33.2336 -85.5836 66° East 471 542 37,000  Level Atlanta Center
03:39PM 33.2897 -85.4256 67° East 471 542 37,000  Level Atlanta Center
03:40PM 33.3372 -85.2794 69° East 465 535 37,000  Level Atlanta Center
03:41PM 33.3886 -85.1361 67° East 476 548 37,000  Level Atlanta Center
03:42PM 33.4400 -84.9872 67° East 476 548 37,000  Level Atlanta Center
03:43PM 33.4911 -84.8408 67° East 476 548 37,000 -660 Level Atlanta Center
03:44PM 33.5400 -84.6967 68° East 471 542 35,700 -1,020 Descending Atlanta Center
03:45PM 33.5886 -84.5500 68° East 471 542 35,000 -360 Descending Atlanta Center
03:46PM 33.6372 -84.4006 69° East 472 543 35,000  Level Atlanta Center
03:47PM 33.6772 -84.2511 72° East 472 543 35,000  Level Atlanta Center
03:48PM 33.7253 -84.0936 70° East 482 555 35,000  Level Atlanta Center
03:49PM 33.7669 -83.9414 72° East 482 555 35,000  Level Atlanta Center
03:50PM 33.8106 -83.7914 71° East 482 555 35,000 -180 Level Atlanta Center
03:51PM 33.8458 -83.6386 74° East 477 549 34,700 -1,500 Descending Atlanta Center
03:52PM 33.8411 -83.4836 92° East 465 535 32,000 -2,400 Descending Atlanta Center
03:53PM 33.8717 -83.3358 76° East 458 527 30,000 -1,500 Descending Atlanta Center
03:54PM 33.9103 -83.2103 70° East 446 513 29,100 -540 Descending Atlanta Center
03:55PM 33.9594 -83.0669 67° East 460 529 29,000 -60 Descending Atlanta Center
03:56PM 34.0061 -82.9186 69° East 466 536 29,000  Level Atlanta Center
03:57PM 34.0528 -82.7703 69° East 466 536 29,000 -300 Level Atlanta Center
03:58PM 34.1014 -82.6264 68° East 471 542 28,500 -1,020 Descending Atlanta Center
03:59PM 34.1536 -82.4675 68° East 471 542 27,000 -1,560 Descending Atlanta Center
04:00PM 34.1997 -82.3183 69° East 471 542 25,400 -1,620 Descending Atlanta Center
04:01PM 34.2475 -82.1717 68° East 471 542 23,800 -720 Descending Atlanta Center
04:02PM 34.3272 -82.0592 49° Northeast 444 511 24,000 -1,620 Climbing Atlanta Center
04:03PM 34.4069 -81.9567 47° Northeast 433 498 20,600 -2,880 Descending Atlanta Center
04:04PM 34.4844 -81.8589 46° Northeast 412 474 18,300 -2,100 Descending Atlanta Center
04:05PM 34.5619 -81.7611 46° Northeast 396 456 16,400 -1,980 Descending Atlanta Center
04:06PM 34.6150 -81.6967 45° Northeast 391 450 15,000 -1,800 Descending Atlanta Center
04:06PM 34.6375 -81.6681 46° Northeast 390 449 14,600 -1,860 Descending Atlanta Center
04:07PM 34.6986 -81.5906 46° Northeast 369 425 12,600 -1,320 Descending Atlanta Center
04:08PM 34.7636 -81.5053 47° Northeast 344 396 12,000 -300 Descending Atlanta Center
04:09PM 34.8308 -81.4222 45° Northeast 338 389 12,000  Level Atlanta Center
04:10PM 34.9058 -81.3211 48° Northeast 340 391 12,000  Level Atlanta Center
04:11PM 34.9606 -81.2533 45° Northeast 331 381 12,000 -60 Level Atlanta Center
04:12PM 35.0233 -81.1678 48° Northeast 331 381 11,900 -540 Descending Atlanta Center
04:13PM 35.0622 -81.1186 46° Northeast 290 334 11,200 -1,380 Descending FAA TRACON SMA TRACON (SMA)
04:13PM 35.0792 -81.0967 47° Northeast 287 330 10,700 -1,620 Descending FAA TRACON SMA TRACON (SMA)
04:13PM 35.0975 -81.0775 41° Northeast 285 328 10,100 -2,040 Descending FAA TRACON SMA TRACON (SMA)
04:14PM 35.1250 -81.0644 21° North 275 316 9,400 -1,680 Descending FAA TRACON SMA TRACON (SMA)
04:14PM 35.1481 -81.0633 North 265 305 9,000 -600 Descending FAA TRACON SMA TRACON (SMA)
04:14PM 35.1711 -81.0658 355° North 280 322 9,000  Level FAA TRACON SMA TRACON (SMA)
04:15PM 35.2014 -81.0681 357° North 277 319 9,000  Level FAA TRACON SMA TRACON (SMA)
04:15PM 35.2308 -81.0706 356° North 272 313 9,000  Level FAA TRACON SMA TRACON (SMA)
04:15PM 35.2481 -81.0722 355° North 269 310 9,000 -180 Level FAA TRACON SMA TRACON (SMA)
04:16PM 35.2769 -81.0747 356° North 269 310 8,900 -480 Descending FAA TRACON SMA TRACON (SMA)
04:16PM 35.3003 -81.0761 357° North 270 311 8,700 -780 Descending FAA TRACON SMA TRACON (SMA)
04:16PM 35.3236 -81.0783 356° North 271 312 8,400 -1,080 Descending FAA TRACON SMA TRACON (SMA)
04:17PM 35.3525 -81.0811 356° North 269 310 8,000 -1,260 Descending FAA TRACON SMA TRACON (SMA)
04:17PM 35.3750 -81.0833 355° North 264 304 7,600 -900 Descending FAA TRACON SMA TRACON (SMA)
04:17PM 35.3992 -81.0883 350° North 256 295 7,400 -1,020 Descending Atlanta Center
04:18PM 35.4572 -81.0761 10° North 220 253 6,200 -1,200 Descending Atlanta Center
04:19PM 35.4594 -80.9969 88° East 234 269 5,000 -960 Descending Atlanta Center
04:20PM 35.4069 -80.9836 168° South 191 220 4,300 -900 Descending Atlanta Center
04:21PM 35.3733 -80.9803 175° South 191 220 3,600 -1,080 Descending FAA TRACON SMA TRACON (SMA)
04:21PM 35.3586 -80.9792 176° South 188 216 3,300 -900 Descending FAA TRACON SMA TRACON (SMA)